sensor_id;sensor_type;location;lat;lon;timestamp;temperature;humidity
12926;DHT22;6529;50.566;9.774;2023-05-14T00:01:09;10.60;99.90
12926;DHT22;6529;50.566;9.774;2023-05-14T00:03:35;10.60;1.00
12926;DHT22;6529;50.566;9.774;2023-05-14T00:06:01;10.60;99.90
12926;DHT22;6529;50.566;9.774;2023-05-14T00:08:27;10.40;63.40
12926;DHT22;6529;50.566;9.774;2023-05-14T00:10:53;10.30;1.00
12926;DHT22;6529;50.566;9.774;2023-05-14T00:13:19;10.20;1.00
12926;DHT22;6529;50.566;9.774;2023-05-14T00:15:44;10.30;1.00
12926;DHT22;6529;50.566;9.774;2023-05-14T00:18:10;10.30;1.00
12926;DHT22;6529;50.566;9.774;2023-05-14T00:20:36;10.40;1.00
12926;DHT22;6529;50.566;9.774;2023-05-14T00:23:02;10.50;99.90
12926;DHT22;6529;50.566;9.774;2023-05-14T00:25:28;10.60;1.00
12926;DHT22;6529;50.566;9.774;2023-05-14T00:27:53;10.70;1.00
12926;DHT22;6529;50.566;9.774;2023-05-14T00:30:19;10.70;1.00
12926;DHT22;6529;50.566;9.774;2023-05-14T00:32:44;10.60;99.90
12926;DHT22;6529;50.566;9.774;2023-05-14T00:35:10;10.60;99.90
12926;DHT22;6529;50.566;9.774;2023-05-14T00:37:35;10.60;6.60
12926;DHT22;6529;50.566;9.774;2023-05-14T00:40:02;10.50;99.90
12926;DHT22;6529;50.566;9.774;2023-05-14T00:42:28;10.60;1.00
12926;DHT22;6529;50.566;9.774;2023-05-14T00:44:53;10.60;99.90
12926;DHT22;6529;50.566;9.774;2023-05-14T00:47:19;10.50;99.90
12926;DHT22;6529;50.566;9.774;2023-05-14T00:49:45;10.60;1.00
12926;DHT22;6529;50.566;9.774;2023-05-14T00:52:11;10.50;1.00
12926;DHT22;6529;50.566;9.774;2023-05-14T00:54:37;10.60;99.90
12926;DHT22;6529;50.566;9.774;2023-05-14T00:57:03;10.60;99.90
12926;DHT22;6529;50.566;9.774;2023-05-14T00:59:30;10.60;99.90
12926;DHT22;6529;50.566;9.774;2023-05-14T01:01:56;10.30;1.00
12926;DHT22;6529;50.566;9.774;2023-05-14T01:04:21;10.00;1.00
12926;DHT22;6529;50.566;9.774;2023-05-14T01:07:34;10.00;1.00
12926;DHT22;6529;50.566;9.774;2023-05-14T01:10:12;10.00;1.00
12926;DHT22;6529;50.566;9.774;2023-05-14T01:15:13;10.00;1.00
12926;DHT22;6529;50.566;9.774;2023-05-14T01:17:46;10.10;1.00
12926;DHT22;6529;50.566;9.774;2023-05-14T01:20:13;10.20;1.00
12926;DHT22;6529;50.566;9.774;2023-05-14T01:22:38;10.20;1.00
12926;DHT22;6529;50.566;9.774;2023-05-14T01:25:05;10.30;99.90
12926;DHT22;6529;50.566;9.774;2023-05-14T01:32:38;9.90;99.90
12926;DHT22;6529;50.566;9.774;2023-05-14T01:35:05;10.00;99.90
12926;DHT22;6529;50.566;9.774;2023-05-14T01:37:32;10.00;99.90
12926;DHT22;6529;50.566;9.774;2023-05-14T01:39:59;10.10;99.90
12926;DHT22;6529;50.566;9.774;2023-05-14T01:42:25;10.00;1.00
12926;DHT22;6529;50.566;9.774;2023-05-14T01:44:55;10.00;8.60
12926;DHT22;6529;50.566;9.774;2023-05-14T01:47:20;9.90;1.00
12926;DHT22;6529;50.566;9.774;2023-05-14T01:49:46;9.90;1.00
12926;DHT22;6529;50.566;9.774;2023-05-14T01:52:12;9.60;99.90
12926;DHT22;6529;50.566;9.774;2023-05-14T01:54:37;9.60;1.00
12926;DHT22;6529;50.566;9.774;2023-05-14T01:57:03;9.50;1.00
12926;DHT22;6529;50.566;9.774;2023-05-14T01:59:29;9.50;1.00
12926;DHT22;6529;50.566;9.774;2023-05-14T02:01:54;9.60;1.00
12926;DHT22;6529;50.566;9.774;2023-05-14T02:04:20;9.60;1.00
12926;DHT22;6529;50.566;9.774;2023-05-14T02:06:46;9.70;1.00
12926;DHT22;6529;50.566;9.774;2023-05-14T02:09:11;9.60;1.00
12926;DHT22;6529;50.566;9.774;2023-05-14T02:11:37;9.60;1.00
12926;DHT22;6529;50.566;9.774;2023-05-14T02:14:02;9.70;99.90
12926;DHT22;6529;50.566;9.774;2023-05-14T02:16:28;9.80;99.90
12926;DHT22;6529;50.566;9.774;2023-05-14T02:18:53;9.80;1.00
12926;DHT22;6529;50.566;9.774;2023-05-14T02:21:19;9.70;99.90
12926;DHT22;6529;50.566;9.774;2023-05-14T02:23:45;9.70;99.90
12926;DHT22;6529;50.566;9.774;2023-05-14T02:26:12;9.60;99.90
12926;DHT22;6529;50.566;9.774;2023-05-14T02:28:38;9.50;1.00
12926;DHT22;6529;50.566;9.774;2023-05-14T02:31:03;9.60;93.40
12926;DHT22;6529;50.566;9.774;2023-05-14T02:33:29;9.50;1.00
12926;DHT22;6529;50.566;9.774;2023-05-14T02:35:55;9.50;99.90
12926;DHT22;6529;50.566;9.774;2023-05-14T02:38:21;9.40;1.00
12926;DHT22;6529;50.566;9.774;2023-05-14T02:40:46;9.30;99.90
12926;DHT22;6529;50.566;9.774;2023-05-14T02:43:12;9.10;1.00
12926;DHT22;6529;50.566;9.774;2023-05-14T02:45:37;9.10;1.00
12926;DHT22;6529;50.566;9.774;2023-05-14T02:48:03;9.10;1.00
12926;DHT22;6529;50.566;9.774;2023-05-14T02:50:29;9.20;1.00
12926;DHT22;6529;50.566;9.774;2023-05-14T02:52:54;9.30;1.00
12926;DHT22;6529;50.566;9.774;2023-05-14T02:55:20;9.40;99.90
12926;DHT22;6529;50.566;9.774;2023-05-14T02:57:46;9.40;99.90
12926;DHT22;6529;50.566;9.774;2023-05-14T03:00:12;9.40;99.90
12926;DHT22;6529;50.566;9.774;2023-05-14T03:02:37;9.40;99.90
12926;DHT22;6529;50.566;9.774;2023-05-14T03:05:03;9.40;99.90
12926;DHT22;6529;50.566;9.774;2023-05-14T03:07:29;9.50;99.90
12926;DHT22;6529;50.566;9.774;2023-05-14T03:09:54;9.50;4.20
12926;DHT22;6529;50.566;9.774;2023-05-14T03:12:20;9.50;99.90
12926;DHT22;6529;50.566;9.774;2023-05-14T03:14:46;9.50;99.90
12926;DHT22;6529;50.566;9.774;2023-05-14T03:17:12;9.50;99.90
12926;DHT22;6529;50.566;9.774;2023-05-14T03:19:37;9.50;99.90
12926;DHT22;6529;50.566;9.774;2023-05-14T03:22:03;9.50;99.90
12926;DHT22;6529;50.566;9.774;2023-05-14T03:24:29;9.50;56.80
12926;DHT22;6529;50.566;9.774;2023-05-14T03:26:54;9.40;99.90
12926;DHT22;6529;50.566;9.774;2023-05-14T03:29:20;9.40;1.00
12926;DHT22;6529;50.566;9.774;2023-05-14T03:31:45;9.30;1.00
12926;DHT22;6529;50.566;9.774;2023-05-14T03:34:11;9.20;1.00
12926;DHT22;6529;50.566;9.774;2023-05-14T03:36:36;9.10;1.00
12926;DHT22;6529;50.566;9.774;2023-05-14T03:39:04;9.10;1.00
12926;DHT22;6529;50.566;9.774;2023-05-14T03:41:31;9.10;36.20
12926;DHT22;6529;50.566;9.774;2023-05-14T03:43:57;9.10;99.90
12926;DHT22;6529;50.566;9.774;2023-05-14T03:46:22;9.30;99.90
12926;DHT22;6529;50.566;9.774;2023-05-14T03:48:48;9.30;90.90
12926;DHT22;6529;50.566;9.774;2023-05-14T03:51:14;9.50;1.80
12926;DHT22;6529;50.566;9.774;2023-05-14T03:53:39;9.50;1.00
12926;DHT22;6529;50.566;9.774;2023-05-14T03:56:05;9.60;1.00
12926;DHT22;6529;50.566;9.774;2023-05-14T03:58:31;9.60;1.00
12926;DHT22;6529;50.566;9.774;2023-05-14T04:00:57;9.50;1.00
12926;DHT22;6529;50.566;9.774;2023-05-14T04:03:22;9.50;1.00
12926;DHT22;6529;50.566;9.774;2023-05-14T04:05:49;9.30;10.00
12926;DHT22;6529;50.566;9.774;2023-05-14T04:08:15;9.30;78.90
12926;DHT22;6529;50.566;9.774;2023-05-14T04:10:42;9.30;99.90
12926;DHT22;6529;50.566;9.774;2023-05-14T04:13:07;9.30;99.90
12926;DHT22;6529;50.566;9.774;2023-05-14T04:15:33;9.30;99.90
12926;DHT22;6529;50.566;9.774;2023-05-14T04:18:00;9.30;99.90
12926;DHT22;6529;50.566;9.774;2023-05-14T04:20:26;9.40;99.90
12926;DHT22;6529;50.566;9.774;2023-05-14T04:22:53;9.60;99.90
12926;DHT22;6529;50.566;9.774;2023-05-14T04:25:18;9.70;99.90
12926;DHT22;6529;50.566;9.774;2023-05-14T04:27:44;9.70;99.90
12926;DHT22;6529;50.566;9.774;2023-05-14T04:30:10;9.70;99.90
12926;DHT22;6529;50.566;9.774;2023-05-14T04:32:36;9.60;99.90
12926;DHT22;6529;50.566;9.774;2023-05-14T04:35:03;9.70;99.90
12926;DHT22;6529;50.566;9.774;2023-05-14T04:37:29;9.80;99.90
12926;DHT22;6529;50.566;9.774;2023-05-14T04:39:55;9.90;96.10
12926;DHT22;6529;50.566;9.774;2023-05-14T04:42:21;9.80;76.00
12926;DHT22;6529;50.566;9.774;2023-05-14T04:44:46;9.90;99.90
12926;DHT22;6529;50.566;9.774;2023-05-14T04:47:12;9.90;99.90
12926;DHT22;6529;50.566;9.774;2023-05-14T04:49:37;10.00;99.90
12926;DHT22;6529;50.566;9.774;2023-05-14T04:52:03;10.00;99.90
12926;DHT22;6529;50.566;9.774;2023-05-14T04:54:29;10.00;99.90
12926;DHT22;6529;50.566;9.774;2023-05-14T04:56:54;10.00;99.90
12926;DHT22;6529;50.566;9.774;2023-05-14T04:59:20;10.00;99.90
12926;DHT22;6529;50.566;9.774;2023-05-14T05:01:46;10.00;99.90
12926;DHT22;6529;50.566;9.774;2023-05-14T05:04:12;9.90;99.90
12926;DHT22;6529;50.566;9.774;2023-05-14T05:06:37;10.00;99.90
12926;DHT22;6529;50.566;9.774;2023-05-14T05:09:03;10.00;99.90
12926;DHT22;6529;50.566;9.774;2023-05-14T05:11:28;10.00;99.90
12926;DHT22;6529;50.566;9.774;2023-05-14T05:13:54;10.00;99.90
12926;DHT22;6529;50.566;9.774;2023-05-14T05:16:20;10.00;99.90
12926;DHT22;6529;50.566;9.774;2023-05-14T05:18:45;10.00;99.90
12926;DHT22;6529;50.566;9.774;2023-05-14T05:21:11;10.00;99.90
12926;DHT22;6529;50.566;9.774;2023-05-14T05:23:37;10.00;99.90
12926;DHT22;6529;50.566;9.774;2023-05-14T05:26:02;10.00;99.90
12926;DHT22;6529;50.566;9.774;2023-05-14T05:28:28;10.00;99.90
12926;DHT22;6529;50.566;9.774;2023-05-14T05:30:53;10.00;99.90
12926;DHT22;6529;50.566;9.774;2023-05-14T05:33:19;10.00;99.90
12926;DHT22;6529;50.566;9.774;2023-05-14T05:35:45;10.00;99.90
12926;DHT22;6529;50.566;9.774;2023-05-14T05:38:10;10.10;99.90
12926;DHT22;6529;50.566;9.774;2023-05-14T05:40:36;10.20;99.90
12926;DHT22;6529;50.566;9.774;2023-05-14T05:43:01;10.30;99.90
12926;DHT22;6529;50.566;9.774;2023-05-14T05:45:27;10.30;99.90
12926;DHT22;6529;50.566;9.774;2023-05-14T05:47:52;10.30;99.90
12926;DHT22;6529;50.566;9.774;2023-05-14T05:50:18;10.50;99.90
12926;DHT22;6529;50.566;9.774;2023-05-14T05:52:44;10.70;99.90
12926;DHT22;6529;50.566;9.774;2023-05-14T05:55:12;10.90;99.90
12926;DHT22;6529;50.566;9.774;2023-05-14T05:57:38;11.10;99.90
12926;DHT22;6529;50.566;9.774;2023-05-14T06:00:04;11.20;99.90
12926;DHT22;6529;50.566;9.774;2023-05-14T06:02:42;11.40;99.90
12926;DHT22;6529;50.566;9.774;2023-05-14T06:05:09;11.50;99.90
12926;DHT22;6529;50.566;9.774;2023-05-14T06:07:35;11.60;99.90
12926;DHT22;6529;50.566;9.774;2023-05-14T06:10:00;11.70;99.90
12926;DHT22;6529;50.566;9.774;2023-05-14T06:12:26;11.70;99.90
12926;DHT22;6529;50.566;9.774;2023-05-14T06:14:53;11.80;99.90
12926;DHT22;6529;50.566;9.774;2023-05-14T06:17:20;11.80;99.90
12926;DHT22;6529;50.566;9.774;2023-05-14T06:19:45;11.80;99.90
12926;DHT22;6529;50.566;9.774;2023-05-14T06:22:11;11.80;99.90
12926;DHT22;6529;50.566;9.774;2023-05-14T06:24:37;11.80;99.90
12926;DHT22;6529;50.566;9.774;2023-05-14T06:27:02;11.90;99.90
12926;DHT22;6529;50.566;9.774;2023-05-14T06:29:28;12.00;99.90
12926;DHT22;6529;50.566;9.774;2023-05-14T06:32:00;12.00;99.90
12926;DHT22;6529;50.566;9.774;2023-05-14T06:34:26;12.10;99.90
12926;DHT22;6529;50.566;9.774;2023-05-14T06:36:52;12.20;99.90
12926;DHT22;6529;50.566;9.774;2023-05-14T06:39:17;12.30;99.90
12926;DHT22;6529;50.566;9.774;2023-05-14T06:41:43;12.30;99.90
12926;DHT22;6529;50.566;9.774;2023-05-14T06:44:08;12.40;99.90
12926;DHT22;6529;50.566;9.774;2023-05-14T06:46:35;12.50;99.90
12926;DHT22;6529;50.566;9.774;2023-05-14T06:49:07;12.60;99.90
12926;DHT22;6529;50.566;9.774;2023-05-14T06:51:32;12.70;99.90
12926;DHT22;6529;50.566;9.774;2023-05-14T06:53:58;12.80;99.90
12926;DHT22;6529;50.566;9.774;2023-05-14T06:56:23;12.90;99.90
12926;DHT22;6529;50.566;9.774;2023-05-14T06:58:49;12.80;99.90
12926;DHT22;6529;50.566;9.774;2023-05-14T07:01:15;12.80;99.90
12926;DHT22;6529;50.566;9.774;2023-05-14T07:03:41;12.90;99.90
12926;DHT22;6529;50.566;9.774;2023-05-14T07:06:06;13.00;99.90
12926;DHT22;6529;50.566;9.774;2023-05-14T07:08:32;13.10;99.90
12926;DHT22;6529;50.566;9.774;2023-05-14T07:10:58;13.30;1.00
12926;DHT22;6529;50.566;9.774;2023-05-14T07:13:26;13.50;1.00
12926;DHT22;6529;50.566;9.774;2023-05-14T07:15:52;13.60;1.00
12926;DHT22;6529;50.566;9.774;2023-05-14T07:18:20;13.60;99.90
12926;DHT22;6529;50.566;9.774;2023-05-14T07:20:46;13.80;99.90
12926;DHT22;6529;50.566;9.774;2023-05-14T07:23:11;14.00;1.00
12926;DHT22;6529;50.566;9.774;2023-05-14T07:25:37;14.40;99.90
12926;DHT22;6529;50.566;9.774;2023-05-14T07:28:03;14.60;99.90
12926;DHT22;6529;50.566;9.774;2023-05-14T07:30:28;14.80;99.90
12926;DHT22;6529;50.566;9.774;2023-05-14T07:32:54;15.10;1.00
12926;DHT22;6529;50.566;9.774;2023-05-14T07:35:19;15.30;2.20
12926;DHT22;6529;50.566;9.774;2023-05-14T07:37:45;15.50;1.00
12926;DHT22;6529;50.566;9.774;2023-05-14T07:40:11;15.80;1.00
12926;DHT22;6529;50.566;9.774;2023-05-14T07:42:36;15.90;99.90
12926;DHT22;6529;50.566;9.774;2023-05-14T07:45:02;16.00;99.90
12926;DHT22;6529;50.566;9.774;2023-05-14T07:47:28;16.20;77.90
12926;DHT22;6529;50.566;9.774;2023-05-14T07:49:55;16.30;1.00
12926;DHT22;6529;50.566;9.774;2023-05-14T07:52:21;16.40;1.00
12926;DHT22;6529;50.566;9.774;2023-05-14T07:54:47;16.60;1.00
12926;DHT22;6529;50.566;9.774;2023-05-14T07:57:12;16.70;1.00
12926;DHT22;6529;50.566;9.774;2023-05-14T07:59:38;16.80;1.00
12926;DHT22;6529;50.566;9.774;2023-05-14T08:02:03;16.60;1.00
12926;DHT22;6529;50.566;9.774;2023-05-14T08:04:29;16.60;23.00
12926;DHT22;6529;50.566;9.774;2023-05-14T08:06:55;16.70;1.00
12926;DHT22;6529;50.566;9.774;2023-05-14T08:09:22;16.60;1.00
12926;DHT22;6529;50.566;9.774;2023-05-14T08:11:48;16.80;1.00
12926;DHT22;6529;50.566;9.774;2023-05-14T08:14:13;16.70;99.90
12926;DHT22;6529;50.566;9.774;2023-05-14T08:16:39;16.90;99.90
12926;DHT22;6529;50.566;9.774;2023-05-14T08:19:05;17.10;1.00
12926;DHT22;6529;50.566;9.774;2023-05-14T08:21:30;17.30;99.90
12926;DHT22;6529;50.566;9.774;2023-05-14T08:23:56;17.30;99.90
12926;DHT22;6529;50.566;9.774;2023-05-14T08:26:22;17.60;99.90
12926;DHT22;6529;50.566;9.774;2023-05-14T08:28:48;17.90;1.00
12926;DHT22;6529;50.566;9.774;2023-05-14T08:31:13;18.10;99.90
12926;DHT22;6529;50.566;9.774;2023-05-14T08:33:39;18.20;1.00
12926;DHT22;6529;50.566;9.774;2023-05-14T08:36:05;18.30;99.90
12926;DHT22;6529;50.566;9.774;2023-05-14T08:38:31;18.50;1.00
12926;DHT22;6529;50.566;9.774;2023-05-14T08:40:58;18.60;1.00
12926;DHT22;6529;50.566;9.774;2023-05-14T08:46:17;18.70;1.00
12926;DHT22;6529;50.566;9.774;2023-05-14T08:48:47;18.70;1.00
12926;DHT22;6529;50.566;9.774;2023-05-14T08:51:15;18.50;1.00
12926;DHT22;6529;50.566;9.774;2023-05-14T08:53:41;18.40;1.00
12926;DHT22;6529;50.566;9.774;2023-05-14T08:56:08;18.70;99.90
12926;DHT22;6529;50.566;9.774;2023-05-14T08:58:33;19.00;1.00
12926;DHT22;6529;50.566;9.774;2023-05-14T09:00:59;19.00;1.00
12926;DHT22;6529;50.566;9.774;2023-05-14T09:03:25;19.20;1.00
12926;DHT22;6529;50.566;9.774;2023-05-14T09:05:51;19.20;99.90
12926;DHT22;6529;50.566;9.774;2023-05-14T09:08:16;19.30;1.00
12926;DHT22;6529;50.566;9.774;2023-05-14T09:10:42;19.30;99.90
12926;DHT22;6529;50.566;9.774;2023-05-14T09:13:07;19.50;1.00
12926;DHT22;6529;50.566;9.774;2023-05-14T09:15:36;19.40;1.00
12926;DHT22;6529;50.566;9.774;2023-05-14T09:18:05;19.30;1.00
12926;DHT22;6529;50.566;9.774;2023-05-14T09:20:31;19.30;1.00
12926;DHT22;6529;50.566;9.774;2023-05-14T09:22:58;19.10;1.00
12926;DHT22;6529;50.566;9.774;2023-05-14T09:25:30;18.90;1.00
12926;DHT22;6529;50.566;9.774;2023-05-14T09:27:56;19.00;1.00
12926;DHT22;6529;50.566;9.774;2023-05-14T09:30:23;19.20;99.90
12926;DHT22;6529;50.566;9.774;2023-05-14T09:32:52;19.20;1.00
12926;DHT22;6529;50.566;9.774;2023-05-14T09:35:19;19.20;1.00
12926;DHT22;6529;50.566;9.774;2023-05-14T09:37:54;19.30;99.90
12926;DHT22;6529;50.566;9.774;2023-05-14T09:40:21;19.20;99.90
12926;DHT22;6529;50.566;9.774;2023-05-14T09:42:48;19.10;99.90
12926;DHT22;6529;50.566;9.774;2023-05-14T09:45:13;19.00;99.90
12926;DHT22;6529;50.566;9.774;2023-05-14T09:47:39;19.30;99.90
12926;DHT22;6529;50.566;9.774;2023-05-14T09:50:06;19.90;99.90
12926;DHT22;6529;50.566;9.774;2023-05-14T09:52:31;20.30;99.90
12926;DHT22;6529;50.566;9.774;2023-05-14T09:54:57;20.30;99.90
12926;DHT22;6529;50.566;9.774;2023-05-14T09:57:23;20.20;99.90
12926;DHT22;6529;50.566;9.774;2023-05-14T09:59:49;20.00;99.90
12926;DHT22;6529;50.566;9.774;2023-05-14T10:02:22;19.60;99.90
12926;DHT22;6529;50.566;9.774;2023-05-14T10:04:50;19.40;99.90
12926;DHT22;6529;50.566;9.774;2023-05-14T10:07:21;20.00;99.90
12926;DHT22;6529;50.566;9.774;2023-05-14T10:09:47;19.90;99.90
12926;DHT22;6529;50.566;9.774;2023-05-14T10:12:15;20.00;64.70
12926;DHT22;6529;50.566;9.774;2023-05-14T10:14:46;20.00;1.00
12926;DHT22;6529;50.566;9.774;2023-05-14T10:17:20;20.50;99.90
12926;DHT22;6529;50.566;9.774;2023-05-14T10:19:50;21.10;1.00
12926;DHT22;6529;50.566;9.774;2023-05-14T10:22:21;20.90;1.00
12926;DHT22;6529;50.566;9.774;2023-05-14T10:24:47;21.10;91.40
12926;DHT22;6529;50.566;9.774;2023-05-14T10:27:18;20.90;1.00
12926;DHT22;6529;50.566;9.774;2023-05-14T10:29:53;20.40;1.00
12926;DHT22;6529;50.566;9.774;2023-05-14T10:32:23;20.10;1.00
12926;DHT22;6529;50.566;9.774;2023-05-14T10:34:50;19.70;82.70
12926;DHT22;6529;50.566;9.774;2023-05-14T10:37:18;19.40;85.10
12926;DHT22;6529;50.566;9.774;2023-05-14T10:44:57;19.70;99.90
12926;DHT22;6529;50.566;9.774;2023-05-14T10:47:30;20.30;20.10
12926;DHT22;6529;50.566;9.774;2023-05-14T10:49:58;20.60;1.00
12926;DHT22;6529;50.566;9.774;2023-05-14T10:52:25;20.40;1.00
12926;DHT22;6529;50.566;9.774;2023-05-14T10:54:51;20.00;1.00
12926;DHT22;6529;50.566;9.774;2023-05-14T10:57:18;19.70;1.00
12926;DHT22;6529;50.566;9.774;2023-05-14T10:59:46;19.40;1.00
12926;DHT22;6529;50.566;9.774;2023-05-14T11:02:19;19.20;90.70
12926;DHT22;6529;50.566;9.774;2023-05-14T11:07:26;19.30;99.90
12926;DHT22;6529;50.566;9.774;2023-05-14T11:09:52;19.30;99.90
12926;DHT22;6529;50.566;9.774;2023-05-14T11:12:18;19.40;99.90
12926;DHT22;6529;50.566;9.774;2023-05-14T11:14:44;19.30;1.00
12926;DHT22;6529;50.566;9.774;2023-05-14T11:17:11;19.30;99.90
12926;DHT22;6529;50.566;9.774;2023-05-14T11:19:36;19.10;1.00
12926;DHT22;6529;50.566;9.774;2023-05-14T11:22:02;19.60;46.40
12926;DHT22;6529;50.566;9.774;2023-05-14T11:24:28;19.60;6.60
12926;DHT22;6529;50.566;9.774;2023-05-14T11:26:53;19.70;1.00
12926;DHT22;6529;50.566;9.774;2023-05-14T11:29:20;20.10;1.00
12926;DHT22;6529;50.566;9.774;2023-05-14T11:31:46;20.20;1.00
12926;DHT22;6529;50.566;9.774;2023-05-14T11:34:12;20.00;1.00
12926;DHT22;6529;50.566;9.774;2023-05-14T11:36:38;20.40;1.00
12926;DHT22;6529;50.566;9.774;2023-05-14T11:39:03;20.50;1.00
12926;DHT22;6529;50.566;9.774;2023-05-14T11:41:29;21.10;1.00
12926;DHT22;6529;50.566;9.774;2023-05-14T11:43:56;21.50;1.00
12926;DHT22;6529;50.566;9.774;2023-05-14T11:46:22;21.90;1.00
12926;DHT22;6529;50.566;9.774;2023-05-14T11:48:48;21.60;1.00
12926;DHT22;6529;50.566;9.774;2023-05-14T11:51:14;21.20;1.00
12926;DHT22;6529;50.566;9.774;2023-05-14T11:53:39;20.80;1.00
12926;DHT22;6529;50.566;9.774;2023-05-14T11:56:05;20.40;1.00
12926;DHT22;6529;50.566;9.774;2023-05-14T11:58:31;19.90;99.90
12926;DHT22;6529;50.566;9.774;2023-05-14T12:00:58;19.40;99.90
12926;DHT22;6529;50.566;9.774;2023-05-14T12:03:24;19.10;99.90
12926;DHT22;6529;50.566;9.774;2023-05-14T12:06:01;18.90;99.90
12926;DHT22;6529;50.566;9.774;2023-05-14T12:08:31;18.70;99.90
12926;DHT22;6529;50.566;9.774;2023-05-14T12:10:58;18.40;1.00
12926;DHT22;6529;50.566;9.774;2023-05-14T12:13:28;18.20;1.00
12926;DHT22;6529;50.566;9.774;2023-05-14T12:15:58;17.90;1.00
12926;DHT22;6529;50.566;9.774;2023-05-14T12:18:26;17.70;1.00
12926;DHT22;6529;50.566;9.774;2023-05-14T12:20:52;17.70;24.60
12926;DHT22;6529;50.566;9.774;2023-05-14T12:23:44;17.60;1.00
12926;DHT22;6529;50.566;9.774;2023-05-14T12:26:11;17.50;1.00
12926;DHT22;6529;50.566;9.774;2023-05-14T12:28:38;17.50;1.00
12926;DHT22;6529;50.566;9.774;2023-05-14T12:31:07;17.60;99.90
12926;DHT22;6529;50.566;9.774;2023-05-14T12:33:32;17.80;99.90
12926;DHT22;6529;50.566;9.774;2023-05-14T12:35:58;18.00;99.90
12926;DHT22;6529;50.566;9.774;2023-05-14T12:38:26;18.00;60.20
12926;DHT22;6529;50.566;9.774;2023-05-14T12:40:52;17.80;1.00
12926;DHT22;6529;50.566;9.774;2023-05-14T12:43:18;17.90;1.00
12926;DHT22;6529;50.566;9.774;2023-05-14T12:45:44;18.00;1.00
12926;DHT22;6529;50.566;9.774;2023-05-14T12:48:10;18.30;99.90
12926;DHT22;6529;50.566;9.774;2023-05-14T12:50:35;18.70;1.00
12926;DHT22;6529;50.566;9.774;2023-05-14T12:53:01;19.10;99.90
12926;DHT22;6529;50.566;9.774;2023-05-14T12:55:26;19.60;99.90
12926;DHT22;6529;50.566;9.774;2023-05-14T12:57:53;19.90;47.50
12926;DHT22;6529;50.566;9.774;2023-05-14T13:00:18;20.50;99.90
12926;DHT22;6529;50.566;9.774;2023-05-14T13:02:44;21.40;99.90
12926;DHT22;6529;50.566;9.774;2023-05-14T13:05:12;21.90;1.00
12926;DHT22;6529;50.566;9.774;2023-05-14T13:07:38;22.40;12.70
12926;DHT22;6529;50.566;9.774;2023-05-14T13:10:04;22.70;1.00
12926;DHT22;6529;50.566;9.774;2023-05-14T13:12:30;22.90;1.00
12926;DHT22;6529;50.566;9.774;2023-05-14T13:14:56;23.00;1.00
12926;DHT22;6529;50.566;9.774;2023-05-14T13:17:22;23.00;1.00
12926;DHT22;6529;50.566;9.774;2023-05-14T13:19:47;22.50;1.00
12926;DHT22;6529;50.566;9.774;2023-05-14T13:22:13;22.90;1.00
12926;DHT22;6529;50.566;9.774;2023-05-14T13:24:41;23.10;1.00
12926;DHT22;6529;50.566;9.774;2023-05-14T13:27:06;23.40;1.00
12926;DHT22;6529;50.566;9.774;2023-05-14T13:29:32;23.70;1.00
12926;DHT22;6529;50.566;9.774;2023-05-14T13:31:58;23.80;1.00
12926;DHT22;6529;50.566;9.774;2023-05-14T13:34:23;24.00;1.00
12926;DHT22;6529;50.566;9.774;2023-05-14T13:36:49;24.00;1.00
12926;DHT22;6529;50.566;9.774;2023-05-14T13:39:15;24.30;1.00
12926;DHT22;6529;50.566;9.774;2023-05-14T13:41:40;24.40;1.00
12926;DHT22;6529;50.566;9.774;2023-05-14T13:44:06;24.60;1.00
12926;DHT22;6529;50.566;9.774;2023-05-14T13:46:32;24.70;1.00
12926;DHT22;6529;50.566;9.774;2023-05-14T13:48:57;24.80;1.00
12926;DHT22;6529;50.566;9.774;2023-05-14T13:51:23;24.90;1.00
12926;DHT22;6529;50.566;9.774;2023-05-14T13:53:49;24.70;1.00
12926;DHT22;6529;50.566;9.774;2023-05-14T13:56:14;25.00;1.00
12926;DHT22;6529;50.566;9.774;2023-05-14T13:58:40;24.90;1.00
12926;DHT22;6529;50.566;9.774;2023-05-14T14:01:05;24.40;1.00
12926;DHT22;6529;50.566;9.774;2023-05-14T14:03:32;23.70;1.00
12926;DHT22;6529;50.566;9.774;2023-05-14T14:05:57;23.50;1.00
12926;DHT22;6529;50.566;9.774;2023-05-14T14:08:23;23.80;1.00
12926;DHT22;6529;50.566;9.774;2023-05-14T14:10:48;24.20;1.00
12926;DHT22;6529;50.566;9.774;2023-05-14T14:13:14;24.20;1.00
12926;DHT22;6529;50.566;9.774;2023-05-14T14:15:39;24.70;1.00
12926;DHT22;6529;50.566;9.774;2023-05-14T14:18:05;24.80;1.00
12926;DHT22;6529;50.566;9.774;2023-05-14T14:20:31;24.70;1.00
12926;DHT22;6529;50.566;9.774;2023-05-14T14:22:57;24.20;1.00
12926;DHT22;6529;50.566;9.774;2023-05-14T14:25:22;24.30;1.00
12926;DHT22;6529;50.566;9.774;2023-05-14T14:27:48;23.70;1.00
12926;DHT22;6529;50.566;9.774;2023-05-14T14:30:15;23.30;1.00
12926;DHT22;6529;50.566;9.774;2023-05-14T14:32:42;23.40;1.00
12926;DHT22;6529;50.566;9.774;2023-05-14T14:35:09;23.70;1.00
12926;DHT22;6529;50.566;9.774;2023-05-14T14:37:34;24.10;1.00
12926;DHT22;6529;50.566;9.774;2023-05-14T14:40:00;24.60;1.00
12926;DHT22;6529;50.566;9.774;2023-05-14T14:42:25;24.90;1.00
12926;DHT22;6529;50.566;9.774;2023-05-14T14:44:51;24.80;1.00
12926;DHT22;6529;50.566;9.774;2023-05-14T14:47:16;24.40;1.00
12926;DHT22;6529;50.566;9.774;2023-05-14T14:49:42;24.70;1.00
12926;DHT22;6529;50.566;9.774;2023-05-14T14:52:08;24.50;1.00
12926;DHT22;6529;50.566;9.774;2023-05-14T14:54:33;25.10;1.00
12926;DHT22;6529;50.566;9.774;2023-05-14T14:56:59;25.10;1.00
12926;DHT22;6529;50.566;9.774;2023-05-14T14:59:24;25.00;1.00
12926;DHT22;6529;50.566;9.774;2023-05-14T15:01:50;24.60;1.00
12926;DHT22;6529;50.566;9.774;2023-05-14T15:04:15;24.90;1.00
12926;DHT22;6529;50.566;9.774;2023-05-14T15:06:41;25.30;1.00
12926;DHT22;6529;50.566;9.774;2023-05-14T15:09:06;25.30;1.00
12926;DHT22;6529;50.566;9.774;2023-05-14T15:11:32;25.20;1.00
12926;DHT22;6529;50.566;9.774;2023-05-14T15:13:57;25.20;1.00
12926;DHT22;6529;50.566;9.774;2023-05-14T15:16:23;25.10;1.00
12926;DHT22;6529;50.566;9.774;2023-05-14T15:18:49;25.10;1.00
12926;DHT22;6529;50.566;9.774;2023-05-14T15:21:14;25.00;1.00
12926;DHT22;6529;50.566;9.774;2023-05-14T15:23:40;24.80;1.00
12926;DHT22;6529;50.566;9.774;2023-05-14T15:26:05;25.00;1.00
12926;DHT22;6529;50.566;9.774;2023-05-14T15:28:31;24.80;1.00
12926;DHT22;6529;50.566;9.774;2023-05-14T15:30:56;25.20;1.00
12926;DHT22;6529;50.566;9.774;2023-05-14T15:33:22;25.10;1.00
12926;DHT22;6529;50.566;9.774;2023-05-14T15:35:48;25.30;1.00
12926;DHT22;6529;50.566;9.774;2023-05-14T15:38:13;24.60;1.00
12926;DHT22;6529;50.566;9.774;2023-05-14T15:40:39;24.80;1.00
12926;DHT22;6529;50.566;9.774;2023-05-14T15:43:05;24.70;1.00
12926;DHT22;6529;50.566;9.774;2023-05-14T15:45:30;24.40;1.00
12926;DHT22;6529;50.566;9.774;2023-05-14T15:47:56;24.40;1.00
12926;DHT22;6529;50.566;9.774;2023-05-14T15:50:22;24.40;1.00
12926;DHT22;6529;50.566;9.774;2023-05-14T15:52:47;24.30;1.00
12926;DHT22;6529;50.566;9.774;2023-05-14T15:55:13;24.50;1.00
12926;DHT22;6529;50.566;9.774;2023-05-14T15:57:39;23.80;1.00
12926;DHT22;6529;50.566;9.774;2023-05-14T16:00:05;23.60;1.00
12926;DHT22;6529;50.566;9.774;2023-05-14T16:02:37;23.60;1.00
12926;DHT22;6529;50.566;9.774;2023-05-14T16:05:03;23.40;1.00
12926;DHT22;6529;50.566;9.774;2023-05-14T16:07:29;23.40;1.00
12926;DHT22;6529;50.566;9.774;2023-05-14T16:09:54;23.50;1.00